createdAt,value
2023-04-09T00:01:08.528Z,4.20
2023-04-09T00:03:55.939Z,4.20
2023-04-09T00:06:43.531Z,4.30
2023-04-09T00:09:31.989Z,4.20
2023-04-09T00:12:21.069Z,4.10
2023-04-09T00:15:15.044Z,4.10
2023-04-09T00:18:08.165Z,4.00
2023-04-09T00:20:55.596Z,4.00
2023-04-09T00:23:43.121Z,4.00
2023-04-09T00:26:30.276Z,4.10
2023-04-09T00:29:19.232Z,3.90
2023-04-09T00:32:06.974Z,3.80
2023-04-09T00:34:54.095Z,3.90
2023-04-09T00:37:41.456Z,3.70
2023-04-09T00:40:29.180Z,3.70
2023-04-09T00:43:16.702Z,3.80
2023-04-09T00:46:06.404Z,3.80
2023-04-09T00:48:53.948Z,3.70
2023-04-09T00:51:41.704Z,3.60
2023-04-09T00:54:29.338Z,3.70
2023-04-09T00:57:17.142Z,3.70
2023-04-09T01:00:07.175Z,3.70
2023-04-09T01:02:58.453Z,3.60
2023-04-09T01:05:52.204Z,3.60
2023-04-09T01:08:47.719Z,3.50
2023-04-09T01:11:41.601Z,3.50
2023-04-09T01:14:35.961Z,3.40
2023-04-09T01:17:32.139Z,3.10
2023-04-09T01:20:29.762Z,3.30
2023-04-09T01:23:25.720Z,3.20
2023-04-09T01:26:22.454Z,2.70
2023-04-09T01:29:16.982Z,2.60
2023-04-09T01:32:06.156Z,2.60
2023-04-09T01:34:54.966Z,2.60
2023-04-09T01:37:43.380Z,2.50
2023-04-09T01:40:30.906Z,2.60
2023-04-09T01:43:19.465Z,2.70
2023-04-09T01:46:08.560Z,2.80
2023-04-09T01:48:56.831Z,2.80
2023-04-09T01:51:44.184Z,2.80
2023-04-09T01:54:31.568Z,2.60
2023-04-09T01:57:25.340Z,2.60
2023-04-09T02:00:13.856Z,2.60
2023-04-09T02:03:09.529Z,2.70
2023-04-09T02:06:02.546Z,2.60
2023-04-09T02:08:51.615Z,2.60
2023-04-09T02:11:41.202Z,2.50
2023-04-09T02:14:30.308Z,2.60
2023-04-09T02:17:17.533Z,2.60
2023-04-09T02:20:07.492Z,2.70
2023-04-09T02:22:54.823Z,2.60
2023-04-09T02:25:42.555Z,2.30
2023-04-09T02:28:29.885Z,2.10
2023-04-09T02:31:16.991Z,2.10
2023-04-09T02:34:04.331Z,2.10
2023-04-09T02:36:53.101Z,2.30
2023-04-09T02:39:40.224Z,2.30
2023-04-09T02:42:27.641Z,2.20
2023-04-09T02:45:15.202Z,2.10
2023-04-09T02:48:02.686Z,2.20
2023-04-09T02:50:54.475Z,2.30
2023-04-09T02:53:43.223Z,2.30
2023-04-09T02:56:30.479Z,2.20
2023-04-09T02:59:17.881Z,2.00
2023-04-09T03:02:06.742Z,1.90
2023-04-09T03:04:54.133Z,2.00
2023-04-09T03:07:41.631Z,2.10
2023-04-09T03:10:30.516Z,1.80
2023-04-09T03:13:17.668Z,2.00
2023-04-09T03:16:05.629Z,2.10
2023-04-09T03:18:53.495Z,1.90
2023-04-09T03:21:41.275Z,1.80
2023-04-09T03:24:28.738Z,1.70
2023-04-09T03:27:21.839Z,1.80
2023-04-09T03:30:13.621Z,1.60
2023-04-09T03:33:04.687Z,1.70
2023-04-09T03:35:56.705Z,1.80
2023-04-09T03:38:56.857Z,1.60
2023-04-09T03:41:49.920Z,1.50
2023-04-09T03:44:40.331Z,1.60
2023-04-09T03:47:30.620Z,1.80
2023-04-09T03:50:18.210Z,1.60
2023-04-09T03:53:10.236Z,1.60
2023-04-09T03:55:58.098Z,1.50
2023-04-09T03:58:48.407Z,1.70
2023-04-09T04:01:38.163Z,1.80
2023-04-09T04:04:25.964Z,1.70
2023-04-09T04:07:17.103Z,1.60
2023-04-09T04:10:15.780Z,1.50
2023-04-09T04:13:08.271Z,1.70
2023-04-09T04:16:08.507Z,1.60
2023-04-09T04:18:58.402Z,1.50
2023-04-09T04:21:47.081Z,1.70
2023-04-09T04:24:34.403Z,1.30
2023-04-09T04:27:22.803Z,1.40
2023-04-09T04:30:11.223Z,1.30
2023-04-09T04:33:13.673Z,1.30
2023-04-09T04:36:08.710Z,1.30
2023-04-09T04:39:00.094Z,1.30
2023-04-09T04:42:07.806Z,1.20
2023-04-09T04:44:55.645Z,1.20
2023-04-09T04:48:09.112Z,1.40
2023-04-09T04:50:57.425Z,1.60
2023-04-09T04:53:47.418Z,1.70
2023-04-09T04:56:35.518Z,1.80
2023-04-09T04:59:29.416Z,1.90
2023-04-09T05:02:21.518Z,1.90
2023-04-09T05:05:27.836Z,2.10
2023-04-09T05:08:17.717Z,2.10
2023-04-09T05:11:12.884Z,2.10
2023-04-09T05:14:01.715Z,2.10
2023-04-09T05:16:49.255Z,2.30
2023-04-09T05:19:38.910Z,2.40
2023-04-09T05:22:26.499Z,2.60
2023-04-09T05:25:16.047Z,2.60
2023-04-09T05:28:04.696Z,2.60
2023-04-09T05:30:53.913Z,2.70
2023-04-09T05:33:41.343Z,2.70
2023-04-09T05:36:36.041Z,2.80
2023-04-09T05:39:23.600Z,2.80
2023-04-09T05:42:11.938Z,2.90
2023-04-09T05:45:11.897Z,2.80
2023-04-09T05:48:08.284Z,2.80
2023-04-09T05:50:56.055Z,2.80
2023-04-09T05:53:46.113Z,3.00
2023-04-09T05:56:33.447Z,3.10
2023-04-09T05:59:22.570Z,3.10
2023-04-09T06:02:11.443Z,3.20
2023-04-09T06:04:59.289Z,3.10
2023-04-09T06:07:46.667Z,3.40
2023-04-09T06:10:34.724Z,3.20
2023-04-09T06:13:22.645Z,3.30
2023-04-09T06:16:10.831Z,3.20
2023-04-09T06:18:59.592Z,3.20
2023-04-09T06:21:46.739Z,3.40
2023-04-09T06:24:34.148Z,3.30
2023-04-09T06:27:22.143Z,3.30
2023-04-09T06:30:11.044Z,3.40
2023-04-09T06:32:58.160Z,3.50
2023-04-09T06:35:47.160Z,3.60
2023-04-09T06:38:34.521Z,3.60
2023-04-09T06:41:22.411Z,3.80
2023-04-09T06:44:09.822Z,3.90
2023-04-09T06:46:57.321Z,4.00
2023-04-09T06:49:44.890Z,4.10
2023-04-09T06:52:33.825Z,4.20
2023-04-09T06:55:21.101Z,4.20
2023-04-09T06:58:08.349Z,4.20
2023-04-09T07:00:56.321Z,4.30
2023-04-09T07:03:43.890Z,4.30
2023-04-09T07:06:31.128Z,4.40
2023-04-09T07:09:19.862Z,4.50
2023-04-09T07:12:07.082Z,4.60
2023-04-09T07:14:54.531Z,4.70
2023-04-09T07:17:42.081Z,4.80
2023-04-09T07:20:29.461Z,4.80
2023-04-09T07:23:17.294Z,5.10
2023-04-09T07:26:06.879Z,5.30
2023-04-09T07:28:54.103Z,5.30
2023-04-09T07:31:41.594Z,5.70
2023-04-09T07:34:28.981Z,5.80
2023-04-09T07:37:16.800Z,6.10
2023-04-09T07:40:04.618Z,6.50
2023-04-09T07:42:54.227Z,6.50
2023-04-09T07:45:41.473Z,6.30
2023-04-09T07:48:28.886Z,6.50
2023-04-09T07:51:16.322Z,6.90
2023-04-09T07:54:03.742Z,7.30
2023-04-09T07:56:51.407Z,7.60
2023-04-09T07:59:40.079Z,7.90
2023-04-09T08:02:27.852Z,8.00
2023-04-09T08:05:15.423Z,7.70
2023-04-09T08:08:03.121Z,7.90
2023-04-09T08:10:50.722Z,8.60
2023-04-09T08:13:38.036Z,8.90
2023-04-09T08:16:26.891Z,8.80
2023-04-09T08:19:14.767Z,8.80
2023-04-09T08:22:02.947Z,9.20
2023-04-09T08:24:53.081Z,9.20
2023-04-09T08:27:40.642Z,9.00
2023-04-09T08:30:27.748Z,8.90
2023-04-09T08:33:16.674Z,8.80
2023-04-09T08:36:03.928Z,8.60
2023-04-09T08:38:53.124Z,9.00
2023-04-09T08:41:44.437Z,9.20
2023-04-09T08:44:31.544Z,9.60
2023-04-09T08:47:20.572Z,9.40
2023-04-09T08:50:09.938Z,9.90
2023-04-09T08:52:59.085Z,9.90
2023-04-09T08:55:46.916Z,9.80
2023-04-09T08:58:34.399Z,9.70
2023-04-09T09:01:24.775Z,9.70
2023-04-09T09:04:12.325Z,9.20
2023-04-09T09:07:07.788Z,9.40
2023-04-09T09:09:57.033Z,9.80
2023-04-09T09:12:44.447Z,9.70
2023-04-09T09:15:31.582Z,9.50
2023-04-09T09:18:20.215Z,10.10
2023-04-09T09:21:14.170Z,9.70
2023-04-09T09:24:03.051Z,9.90
2023-04-09T09:26:50.462Z,10.00
2023-04-09T09:29:42.750Z,10.20
2023-04-09T09:32:30.719Z,10.00
2023-04-09T09:35:17.768Z,10.00
2023-04-09T09:38:05.455Z,10.20
2023-04-09T09:40:54.210Z,10.00
2023-04-09T09:43:42.631Z,10.50
2023-04-09T09:46:31.935Z,10.80
2023-04-09T09:49:19.174Z,10.60
2023-04-09T09:52:09.901Z,10.90
2023-04-09T09:55:00.786Z,11.10
2023-04-09T09:57:51.552Z,10.60
2023-04-09T10:00:41.234Z,10.50
2023-04-09T10:03:30.764Z,10.30
2023-04-09T10:06:18.587Z,10.80
2023-04-09T10:09:07.767Z,11.00
2023-04-09T10:11:57.891Z,11.30
2023-04-09T10:14:46.712Z,10.90
2023-04-09T10:17:34.161Z,10.70
2023-04-09T10:20:37.119Z,10.70
2023-04-09T10:23:32.980Z,11.00
2023-04-09T10:26:20.760Z,10.90
2023-04-09T10:29:09.057Z,10.90
2023-04-09T10:32:06.715Z,10.90
2023-04-09T10:34:58.743Z,11.20
2023-04-09T10:37:50.660Z,11.10
2023-04-09T10:40:42.480Z,11.30
2023-04-09T10:43:31.604Z,10.90
2023-04-09T10:46:30.109Z,11.30
2023-04-09T10:49:20.860Z,10.90
2023-04-09T10:52:12.028Z,10.80
2023-04-09T10:54:59.734Z,11.20
2023-04-09T10:57:46.994Z,11.40
2023-04-09T11:00:38.339Z,11.00
2023-04-09T11:03:29.011Z,11.00
2023-04-09T11:06:21.376Z,11.30
2023-04-09T11:09:08.770Z,11.20
2023-04-09T11:11:57.436Z,11.40
2023-04-09T11:14:45.202Z,11.90
2023-04-09T11:17:37.537Z,11.70
2023-04-09T11:20:26.409Z,11.80
2023-04-09T11:23:15.376Z,12.00
2023-04-09T11:26:03.091Z,11.70
2023-04-09T11:28:50.639Z,11.40
2023-04-09T11:31:37.846Z,11.40
2023-04-09T11:34:29.114Z,11.40
2023-04-09T11:37:17.242Z,11.40
2023-04-09T11:40:07.101Z,11.40
2023-04-09T11:42:55.627Z,11.30
2023-04-09T11:45:43.170Z,11.50
2023-04-09T11:48:31.599Z,11.50
2023-04-09T11:51:18.965Z,11.50
2023-04-09T11:54:07.109Z,11.30
2023-04-09T11:56:56.133Z,11.50
2023-04-09T11:59:43.430Z,11.60
2023-04-09T12:02:31.476Z,11.70
2023-04-09T12:05:26.492Z,12.00
2023-04-09T12:08:13.971Z,11.60
2023-04-09T12:11:10.426Z,11.70
2023-04-09T12:14:02.830Z,11.40
2023-04-09T12:16:53.167Z,11.40
2023-04-09T12:19:40.788Z,11.30
2023-04-09T12:22:28.349Z,11.40
2023-04-09T12:25:15.551Z,11.50
2023-04-09T12:28:03.488Z,11.60
2023-04-09T12:30:52.655Z,11.70
2023-04-09T12:33:40.326Z,11.60
2023-04-09T12:36:27.626Z,11.50
2023-04-09T12:39:15.498Z,11.70
2023-04-09T12:42:03.008Z,11.80
2023-04-09T12:44:50.597Z,11.70
2023-04-09T12:47:39.723Z,11.90
2023-04-09T12:50:26.925Z,11.90
2023-04-09T12:53:14.391Z,11.80
2023-04-09T12:56:01.800Z,12.00
2023-04-09T12:58:49.225Z,12.10
2023-04-09T13:01:36.784Z,12.20
2023-04-09T13:04:25.674Z,12.10
2023-04-09T13:07:15.596Z,12.20
2023-04-09T13:10:02.783Z,12.30
2023-04-09T13:12:51.380Z,12.20
2023-04-09T13:15:38.758Z,12.30
2023-04-09T13:18:26.089Z,12.40
2023-04-09T13:21:18.576Z,12.50
2023-04-09T13:24:06.787Z,12.40
2023-04-09T13:26:54.052Z,12.70
2023-04-09T13:29:41.664Z,12.50
2023-04-09T13:32:28.791Z,12.50
2023-04-09T13:35:16.223Z,12.60
2023-04-09T13:38:05.096Z,12.90
2023-04-09T13:40:52.147Z,12.70
2023-04-09T13:43:39.535Z,12.70
2023-04-09T13:46:27.872Z,12.80
2023-04-09T13:49:15.112Z,12.60
2023-04-09T13:52:04.440Z,12.70
2023-04-09T13:54:54.256Z,12.80
2023-04-09T13:57:41.556Z,12.80
2023-04-09T14:00:29.021Z,12.70
2023-04-09T14:03:16.689Z,12.80
2023-04-09T14:06:04.597Z,13.00
2023-04-09T14:08:52.272Z,13.00
2023-04-09T14:11:40.790Z,12.90
2023-04-09T14:14:28.244Z,13.00
2023-04-09T14:17:16.041Z,13.00
2023-04-09T14:20:04.567Z,13.00
2023-04-09T14:22:52.011Z,13.00
2023-04-09T14:25:39.146Z,13.20
2023-04-09T14:28:27.867Z,13.00
2023-04-09T14:31:15.262Z,12.90
2023-04-09T14:34:02.390Z,13.10
2023-04-09T14:36:49.774Z,13.20
2023-04-09T14:39:37.307Z,13.10
2023-04-09T14:42:24.523Z,13.00
2023-04-09T14:45:13.226Z,13.00
2023-04-09T14:48:00.744Z,12.90
2023-04-09T14:50:51.202Z,13.10
2023-04-09T14:53:38.690Z,13.10
2023-04-09T14:56:26.154Z,13.40
2023-04-09T14:59:13.653Z,13.50
2023-04-09T15:02:02.930Z,13.20
2023-04-09T15:04:50.687Z,13.30
2023-04-09T15:07:39.125Z,13.40
2023-04-09T15:10:26.531Z,13.30
2023-04-09T15:13:13.845Z,13.40
2023-04-09T15:16:01.161Z,13.40
2023-04-09T15:18:51.989Z,13.40
2023-04-09T15:21:39.637Z,13.50
2023-04-09T15:24:26.944Z,13.50
2023-04-09T15:27:14.338Z,13.40
2023-04-09T15:30:01.812Z,13.30
2023-04-09T15:32:49.221Z,13.20
2023-04-09T15:35:38.035Z,13.20
2023-04-09T15:38:25.433Z,13.30
2023-04-09T15:41:13.107Z,13.30
2023-04-09T15:44:00.445Z,13.40
2023-04-09T15:46:47.811Z,13.20
2023-04-09T15:49:36.689Z,13.30
2023-04-09T15:52:25.785Z,13.30
2023-04-09T15:55:13.004Z,13.20
2023-04-09T15:58:00.523Z,13.30
2023-04-09T16:00:50.325Z,13.10
2023-04-09T16:03:39.745Z,13.10
2023-04-09T16:06:27.369Z,13.10
2023-04-09T16:09:16.219Z,13.00
2023-04-09T16:12:03.749Z,12.90
2023-04-09T16:14:51.464Z,12.90
2023-04-09T16:17:40.845Z,12.90
2023-04-09T16:20:29.314Z,12.90
2023-04-09T16:23:16.532Z,12.80
2023-04-09T16:26:05.538Z,12.70
2023-04-09T16:28:53.377Z,12.70
2023-04-09T16:31:42.429Z,12.70
2023-04-09T16:34:31.426Z,12.80
2023-04-09T16:37:18.624Z,12.60
2023-04-09T16:40:07.023Z,12.60
2023-04-09T16:42:56.060Z,12.60
2023-04-09T16:45:43.748Z,12.60
2023-04-09T16:48:31.036Z,12.60
2023-04-09T16:51:18.454Z,12.70
2023-04-09T16:54:06.430Z,12.70
2023-04-09T16:56:54.098Z,12.50
2023-04-09T16:59:44.812Z,12.50
2023-04-09T17:02:32.417Z,12.40
2023-04-09T17:05:19.984Z,12.40
2023-04-09T17:08:07.202Z,12.40
2023-04-09T17:11:01.742Z,12.30
2023-04-09T17:13:49.106Z,12.30
2023-04-09T17:16:38.070Z,12.20
2023-04-09T17:19:25.510Z,12.10
2023-04-09T17:22:13.889Z,12.10
2023-04-09T17:25:01.736Z,12.10
2023-04-09T17:27:49.037Z,12.00
2023-04-09T17:30:36.632Z,12.00
2023-04-09T17:33:26.000Z,11.80
2023-04-09T17:36:13.124Z,11.80
2023-04-09T17:39:00.578Z,11.70
2023-04-09T17:41:48.124Z,11.60
2023-04-09T17:44:35.671Z,11.50
2023-04-09T17:47:23.188Z,11.60
2023-04-09T17:50:12.832Z,11.40
2023-04-09T17:53:00.188Z,11.30
2023-04-09T17:55:48.856Z,11.20
2023-04-09T17:58:36.142Z,11.10
2023-04-09T18:01:23.711Z,10.90
2023-04-09T18:04:11.866Z,10.80
2023-04-09T18:07:00.554Z,10.70
2023-04-09T18:09:47.768Z,10.50
2023-04-09T18:12:35.597Z,10.40
2023-04-09T18:15:23.037Z,10.40
2023-04-09T18:18:10.402Z,10.20
2023-04-09T18:20:57.676Z,10.20
2023-04-09T18:23:46.530Z,10.30
2023-04-09T18:26:34.420Z,10.30
2023-04-09T18:29:21.569Z,10.30
2023-04-09T18:32:09.144Z,10.20
2023-04-09T18:34:56.941Z,10.20
2023-04-09T18:37:44.263Z,10.10
2023-04-09T18:40:32.966Z,10.00
2023-04-09T18:43:20.726Z,9.70
2023-04-09T18:46:08.132Z,9.50
2023-04-09T18:48:55.706Z,9.30
2023-04-09T18:51:42.898Z,9.20
2023-04-09T18:54:30.449Z,9.10
2023-04-09T18:57:19.316Z,9.10
2023-04-09T19:00:08.038Z,9.00
2023-04-09T19:02:55.311Z,9.00
2023-04-09T19:05:42.990Z,9.00
2023-04-09T19:08:35.534Z,9.10
2023-04-09T19:11:24.252Z,9.00
2023-04-09T19:14:13.086Z,9.00
2023-04-09T19:17:02.302Z,8.90
2023-04-09T19:19:50.012Z,9.00
2023-04-09T19:22:37.454Z,8.80
2023-04-09T19:25:25.209Z,8.70
2023-04-09T19:28:12.556Z,8.50
2023-04-09T19:31:03.446Z,8.50
2023-04-09T19:33:51.717Z,8.40
2023-04-09T19:36:38.974Z,8.60
2023-04-09T19:39:27.218Z,8.70
2023-04-09T19:42:14.193Z,8.80
2023-04-09T19:45:01.775Z,8.90
2023-04-09T19:47:50.641Z,9.00
2023-04-09T19:50:38.994Z,9.00
2023-04-09T19:53:26.091Z,8.90
2023-04-09T19:56:13.690Z,8.90
2023-04-09T19:59:00.960Z,8.90
2023-04-09T20:01:48.943Z,8.90
2023-04-09T20:04:37.707Z,8.90
2023-04-09T20:07:24.841Z,9.00
2023-04-09T20:10:12.833Z,8.90
2023-04-09T20:13:00.029Z,8.80
2023-04-09T20:15:47.670Z,8.80
2023-04-09T20:18:34.999Z,8.70
2023-04-09T20:21:24.076Z,8.40
2023-04-09T20:24:11.437Z,8.30
2023-04-09T20:26:59.570Z,8.30
2023-04-09T20:29:47.980Z,8.20
2023-04-09T20:32:37.749Z,8.10
2023-04-09T20:35:24.935Z,8.00
2023-04-09T20:38:13.625Z,7.90
2023-04-09T20:41:01.114Z,7.90
2023-04-09T20:43:48.354Z,7.80
2023-04-09T20:46:35.824Z,7.70
2023-04-09T20:49:23.931Z,7.60
2023-04-09T20:52:11.180Z,7.60
2023-04-09T20:55:00.562Z,7.50
2023-04-09T20:57:49.382Z,7.50
2023-04-09T21:00:36.509Z,7.30
2023-04-09T21:03:24.255Z,7.10
2023-04-09T21:06:12.103Z,7.10
2023-04-09T21:08:59.957Z,7.20
2023-04-09T21:11:48.815Z,7.10
2023-04-09T21:14:36.055Z,7.00
2023-04-09T21:17:23.665Z,6.90
2023-04-09T21:20:12.862Z,6.80
2023-04-09T21:23:00.094Z,6.60
2023-04-09T21:25:47.531Z,6.60
2023-04-09T21:28:36.536Z,6.70
2023-04-09T21:31:24.712Z,6.80
2023-04-09T21:34:12.390Z,6.90
2023-04-09T21:36:59.869Z,6.90
2023-04-09T21:39:48.315Z,6.90
2023-04-09T21:42:35.491Z,6.90
2023-04-09T21:45:24.356Z,6.90
2023-04-09T21:48:11.551Z,6.90
2023-04-09T21:50:59.367Z,6.90
2023-04-09T21:53:47.488Z,6.90
2023-04-09T21:56:35.827Z,6.90
2023-04-09T21:59:23.156Z,6.80
2023-04-09T22:02:12.055Z,6.80
2023-04-09T22:05:00.959Z,6.90
2023-04-09T22:07:48.357Z,6.80
2023-04-09T22:10:35.929Z,6.70
2023-04-09T22:13:23.331Z,6.60
2023-04-09T22:16:11.256Z,6.40
2023-04-09T22:18:59.942Z,6.40
2023-04-09T22:21:50.468Z,6.20
2023-04-09T22:24:39.234Z,6.00
2023-04-09T22:27:26.766Z,5.90
2023-04-09T22:30:14.929Z,5.90
2023-04-09T22:33:03.105Z,5.90
2023-04-09T22:35:51.628Z,6.10
2023-04-09T22:38:38.940Z,6.00
2023-04-09T22:41:26.457Z,6.10
2023-04-09T22:44:13.637Z,6.00
2023-04-09T22:47:01.340Z,6.20
2023-04-09T22:49:52.660Z,6.00
2023-04-09T22:52:41.238Z,6.10
2023-04-09T22:55:28.673Z,6.00
2023-04-09T22:58:16.089Z,6.00
2023-04-09T23:01:03.654Z,5.90
2023-04-09T23:03:51.687Z,5.80
2023-04-09T23:06:38.925Z,5.70
2023-04-09T23:09:27.719Z,5.60
2023-04-09T23:12:14.945Z,5.70
2023-04-09T23:15:02.618Z,5.70
2023-04-09T23:17:51.502Z,5.80
2023-04-09T23:20:38.832Z,5.80
2023-04-09T23:23:26.403Z,5.70
2023-04-09T23:26:15.097Z,5.50
2023-04-09T23:29:02.192Z,5.30
2023-04-09T23:31:49.676Z,5.30
2023-04-09T23:34:37.180Z,5.40
2023-04-09T23:37:24.617Z,5.30
2023-04-09T23:40:14.631Z,5.20
2023-04-09T23:43:03.743Z,5.30
2023-04-09T23:45:51.364Z,5.20
2023-04-09T23:48:38.562Z,5.10
2023-04-09T23:51:26.030Z,5.10
2023-04-09T23:54:13.686Z,5.00
2023-04-09T23:57:00.858Z,5.00
2023-04-09T23:59:49.778Z,5.00
